Time;durP1;ratioP1;P1;durP2;ratioP2;P2;SDS_P1;SDS_P2;PMS_P1;PMS_P2;Temp;Humidity;BMP_temperature;BMP_pressure;BME280_temperature;BME280_humidity;BME280_pressure;Samples;Min_cycle;Max_cycle;Signal;HPM_P1;HPM_P2
2021/10/10 00:02:18;;;;;;;23.37;10.70;;;9.10;97.70;;;;;;5107697;28;20196;-72
2021/10/10 00:04:45;;;;;;;18.40;9.97;;;9.10;97.80;;;;;;5109640;28;20227;-71
2021/10/10 00:07:12;;;;;;;20.87;9.90;;;9.10;97.90;;;;;;5108989;28;20271;-72
2021/10/10 00:09:40;;;;;;;22.63;10.40;;;9.00;97.90;;;;;;5108375;28;20192;-72
2021/10/10 00:12:07;;;;;;;19.60;9.70;;;9.00;97.90;;;;;;5108236;28;20559;-71
2021/10/10 00:14:36;;;;;;;27.00;11.20;;;9.00;98.00;;;;;;5109444;28;20202;-72
2021/10/10 00:17:03;;;;;;;27.33;12.17;;;8.90;98.10;;;;;;5110663;28;20386;-72
2021/10/10 00:19:30;;;;;;;27.63;12.13;;;8.90;98.20;;;;;;5112358;28;20282;-72
2021/10/10 00:21:57;;;;;;;25.03;11.73;;;8.90;98.30;;;;;;5111439;28;20195;-72
2021/10/10 00:24:24;;;;;;;21.47;10.70;;;8.80;98.30;;;;;;5111195;28;20196;-72
2021/10/10 00:26:51;;;;;;;20.63;11.17;;;8.80;98.40;;;;;;5110798;28;20196;-71
2021/10/10 00:29:18;;;;;;;18.97;9.50;;;8.80;98.40;;;;;;5108568;28;20243;-72
2021/10/10 00:31:46;;;;;;;19.47;10.17;;;8.80;98.40;;;;;;5111031;28;20208;-71
2021/10/10 00:34:13;;;;;;;20.00;10.07;;;8.70;98.50;;;;;;5112045;28;21036;-71
2021/10/10 00:36:40;;;;;;;18.70;10.40;;;8.70;98.50;;;;;;5112177;28;20215;-72
2021/10/10 00:39:07;;;;;;;20.03;9.53;;;8.70;98.60;;;;;;5110141;28;20207;-72
2021/10/10 00:41:37;;;;;;;21.43;10.57;;;8.60;98.60;;;;;;5111036;27;20207;-72
2021/10/10 00:44:09;;;;;;;19.43;10.30;;;8.60;98.70;;;;;;5109294;28;20192;-71
2021/10/10 00:46:36;;;;;;;16.40;9.53;;;8.60;98.70;;;;;;5110834;28;20200;-72
2021/10/10 00:49:05;;;;;;;16.63;9.03;;;8.60;98.80;;;;;;5106869;27;20220;-71
2021/10/10 00:51:35;;;;;;;18.90;9.33;;;8.50;98.80;;;;;;5112697;27;20849;-71
2021/10/10 00:54:02;;;;;;;15.00;8.60;;;8.50;98.80;;;;;;5111102;27;20210;-72
2021/10/10 00:56:31;;;;;;;18.10;9.00;;;8.50;98.90;;;;;;5112132;27;20227;-72
2021/10/10 00:58:59;;;;;;;16.10;8.07;;;8.50;98.90;;;;;;5106906;27;20211;-72
2021/10/10 01:01:27;;;;;;;15.27;8.17;;;8.40;98.90;;;;;;5112946;27;20199;-71
2021/10/10 01:03:54;;;;;;;15.47;8.23;;;8.40;98.60;;;;;;5115680;27;20585;-72
2021/10/10 01:06:23;;;;;;;13.43;7.07;;;8.40;98.90;;;;;;5113794;27;20283;-72
2021/10/10 01:08:50;;;;;;;15.30;8.53;;;8.30;98.90;;;;;;5114492;27;20214;-72
2021/10/10 01:11:19;;;;;;;15.87;8.50;;;8.30;99.00;;;;;;5115643;27;20925;-72
2021/10/10 01:13:46;;;;;;;13.50;7.37;;;8.30;99.00;;;;;;5112888;27;20207;-72
2021/10/10 01:16:13;;;;;;;13.00;7.60;;;8.30;99.10;;;;;;5115960;27;20701;-71
2021/10/10 01:18:40;;;;;;;13.17;7.63;;;8.20;99.00;;;;;;5115719;27;20203;-72
2021/10/10 01:21:08;;;;;;;14.70;7.57;;;8.10;99.10;;;;;;5113918;27;20650;-72
2021/10/10 01:23:35;;;;;;;13.77;7.57;;;8.10;99.10;;;;;;5111386;27;20501;-71
2021/10/10 01:26:03;;;;;;;13.47;7.50;;;8.10;99.20;;;;;;5111281;27;20306;-71
2021/10/10 01:28:29;;;;;;;15.50;7.87;;;8.10;99.20;;;;;;5109016;27;20659;-71
2021/10/10 01:30:56;;;;;;;15.10;7.93;;;8.00;99.20;;;;;;5112699;27;20619;-72
2021/10/10 01:33:24;;;;;;;12.77;7.40;;;8.00;99.30;;;;;;5109387;28;20199;-72
2021/10/10 01:35:50;;;;;;;13.47;7.23;;;8.00;99.40;;;;;;5118249;27;20197;-72
2021/10/10 01:38:19;;;;;;;14.27;7.20;;;8.00;99.40;;;;;;5117879;27;20224;-71
2021/10/10 01:40:47;;;;;;;11.93;7.30;;;7.90;99.40;;;;;;5119433;27;20201;-71
2021/10/10 01:43:15;;;;;;;11.10;6.60;;;7.90;99.50;;;;;;5113350;27;20254;-71
2021/10/10 01:45:42;;;;;;;12.77;6.87;;;7.90;99.50;;;;;;5108137;28;20296;-71
2021/10/10 01:48:10;;;;;;;10.67;6.53;;;7.90;99.50;;;;;;5108656;28;20192;-71
2021/10/10 01:50:37;;;;;;;9.63;5.60;;;7.90;99.80;;;;;;5110371;28;20203;-71
2021/10/10 01:53:05;;;;;;;8.30;5.50;;;7.90;99.50;;;;;;5110306;28;20188;-71
2021/10/10 01:55:34;;;;;;;11.23;5.80;;;7.80;99.40;;;;;;5111076;28;20201;-71
2021/10/10 01:58:01;;;;;;;9.07;5.00;;;7.80;99.40;;;;;;5107952;28;20697;-72
2021/10/10 02:00:28;;;;;;;7.87;5.20;;;7.80;99.50;;;;;;5108439;27;20294;-72
2021/10/10 02:02:56;;;;;;;8.93;5.37;;;7.80;99.50;;;;;;5108780;28;20783;-72
2021/10/10 02:05:23;;;;;;;7.30;4.83;;;7.80;99.50;;;;;;5109982;28;20553;-71
2021/10/10 02:07:52;;;;;;;9.03;5.07;;;7.70;99.50;;;;;;5113368;27;20676;-72
2021/10/10 02:10:19;;;;;;;8.97;5.20;;;7.70;99.50;;;;;;5106061;28;20206;-71
2021/10/10 02:12:47;;;;;;;8.77;5.27;;;7.70;99.60;;;;;;5107193;28;20639;-72
2021/10/10 02:15:14;;;;;;;11.73;6.40;;;7.70;99.60;;;;;;5111032;28;20217;-72
2021/10/10 02:17:41;;;;;;;13.80;6.80;;;7.60;99.60;;;;;;5108229;28;20221;-72
2021/10/10 02:20:12;;;;;;;15.27;6.90;;;7.60;99.70;;;;;;5108573;28;20276;-72
2021/10/10 02:22:40;;;;;;;12.03;6.30;;;7.50;99.60;;;;;;5108738;28;20254;-71
2021/10/10 02:25:10;;;;;;;10.70;5.70;;;7.50;99.70;;;;;;5109342;28;20197;-72
2021/10/10 02:27:37;;;;;;;9.77;5.70;;;7.40;99.70;;;;;;5106634;28;20202;-72
2021/10/10 02:30:06;;;;;;;10.67;5.83;;;7.50;99.70;;;;;;5115143;27;20748;-72
2021/10/10 02:32:34;;;;;;;9.33;5.60;;;7.40;99.70;;;;;;5119334;27;20202;-72
2021/10/10 02:35:01;;;;;;;8.70;5.10;;;7.40;99.70;;;;;;5120956;27;20220;-69
2021/10/10 02:37:28;;;;;;;9.33;5.50;;;7.40;99.70;;;;;;5110202;27;20224;-68
2021/10/10 02:39:56;;;;;;;9.70;5.63;;;7.40;99.70;;;;;;5110065;28;20218;-68
2021/10/10 02:42:23;;;;;;;9.60;5.70;;;7.40;99.70;;;;;;5107238;27;20195;-68
2021/10/10 02:44:50;;;;;;;8.73;5.40;;;7.30;99.70;;;;;;5107676;28;20280;-67
2021/10/10 02:47:18;;;;;;;6.33;4.53;;;7.30;99.80;;;;;;5104900;28;20703;-67
2021/10/10 02:49:45;;;;;;;7.33;4.80;;;7.30;99.80;;;;;;5108225;28;20292;-68
2021/10/10 02:52:12;;;;;;;8.87;5.03;;;7.20;99.80;;;;;;5109219;28;20688;-68
2021/10/10 02:54:39;;;;;;;9.70;5.27;;;7.20;99.80;;;;;;5110259;28;20198;-68
2021/10/10 02:57:06;;;;;;;9.47;5.33;;;7.20;99.80;;;;;;5107322;28;20687;-68
2021/10/10 02:59:33;;;;;;;9.30;5.67;;;7.20;99.80;;;;;;5106409;28;20212;-68
2021/10/10 03:02:00;;;;;;;11.20;5.60;;;7.10;99.90;;;;;;5107940;28;20552;-69
2021/10/10 03:04:28;;;;;;;8.47;5.70;;;7.10;99.90;;;;;;5110830;27;20241;-69
2021/10/10 03:06:56;;;;;;;9.17;5.30;;;7.10;99.90;;;;;;5111200;27;20214;-67
2021/10/10 03:09:22;;;;;;;6.90;4.50;;;7.10;99.90;;;;;;5108706;28;20694;-68
2021/10/10 03:11:49;;;;;;;9.10;5.37;;;7.00;99.90;;;;;;5112218;27;20701;-68
2021/10/10 03:14:16;;;;;;;10.67;5.33;;;7.00;99.90;;;;;;5107759;28;20201;-68
2021/10/10 03:16:43;;;;;;;9.30;5.37;;;7.00;99.90;;;;;;5113506;27;20557;-68
2021/10/10 03:19:10;;;;;;;9.90;5.13;;;7.00;99.90;;;;;;5107601;28;20685;-68
2021/10/10 03:21:39;;;;;;;9.27;5.23;;;6.90;99.90;;;;;;5107692;28;20215;-69
2021/10/10 03:24:06;;;;;;;8.63;5.07;;;7.00;99.90;;;;;;5108231;28;20517;-68
2021/10/10 03:26:33;;;;;;;9.67;5.43;;;6.90;99.90;;;;;;5107666;28;20204;-69
2021/10/10 03:29:00;;;;;;;9.13;5.33;;;6.90;99.90;;;;;;5105559;28;20680;-68
2021/10/10 03:31:27;;;;;;;8.83;5.23;;;6.90;99.90;;;;;;5109149;28;20677;-68
2021/10/10 03:33:54;;;;;;;8.27;5.00;;;6.90;99.90;;;;;;5114278;27;20270;-68
2021/10/10 03:36:21;;;;;;;6.97;4.53;;;6.90;99.90;;;;;;5109555;28;20216;-68
2021/10/10 03:38:50;;;;;;;8.80;5.50;;;6.80;99.90;;;;;;5107250;28;20230;-68
2021/10/10 03:41:17;;;;;;;9.00;5.13;;;6.80;99.90;;;;;;5109236;28;20196;-68
2021/10/10 03:43:44;;;;;;;8.70;5.30;;;6.80;99.90;;;;;;5105074;28;20212;-68
2021/10/10 03:46:11;;;;;;;11.93;5.73;;;6.80;99.90;;;;;;5108132;28;20199;-68
2021/10/10 03:48:38;;;;;;;10.13;5.30;;;6.80;99.90;;;;;;5102094;28;20216;-68
2021/10/10 03:51:05;;;;;;;8.97;4.83;;;6.70;99.90;;;;;;5107583;28;20203;-68
2021/10/10 03:53:41;;;;;;;8.80;5.60;;;6.70;99.90;;;;;;5106674;28;20200;-68
2021/10/10 03:56:10;;;;;;;8.73;5.47;;;6.70;99.90;;;;;;5109513;28;20188;-68
2021/10/10 03:58:39;;;;;;;10.73;5.83;;;6.70;99.90;;;;;;5104376;28;20568;-69
2021/10/10 04:01:05;;;;;;;12.93;5.83;;;6.70;99.90;;;;;;5108685;28;20245;-68
2021/10/10 04:03:33;;;;;;;14.83;6.70;;;6.70;99.90;;;;;;5108055;28;20227;-69
2021/10/10 04:06:01;;;;;;;12.00;5.87;;;6.70;99.90;;;;;;5107935;28;20227;-68
2021/10/10 04:08:28;;;;;;;15.47;7.27;;;6.70;99.90;;;;;;5107493;28;20245;-68
2021/10/10 04:10:55;;;;;;;16.27;7.93;;;6.80;99.90;;;;;;5107370;28;20195;-68
2021/10/10 04:13:24;;;;;;;17.20;7.60;;;6.60;99.90;;;;;;5106474;28;20732;-69
2021/10/10 04:15:51;;;;;;;15.50;7.23;;;6.60;99.90;;;;;;5108122;27;20200;-69
2021/10/10 04:18:17;;;;;;;12.57;6.23;;;6.60;99.90;;;;;;5106444;28;20220;-69
2021/10/10 04:20:44;;;;;;;12.67;6.13;;;6.60;99.90;;;;;;5099008;28;20188;-69
2021/10/10 04:23:11;;;;;;;13.83;6.53;;;6.60;99.90;;;;;;5106181;28;20204;-69
2021/10/10 04:25:38;;;;;;;11.13;6.37;;;6.60;99.90;;;;;;5108078;28;20202;-68
2021/10/10 04:28:05;;;;;;;10.13;6.30;;;6.50;99.90;;;;;;5106275;28;20199;-67
2021/10/10 04:30:34;;;;;;;12.20;6.43;;;6.50;99.90;;;;;;5107197;28;20192;-68
2021/10/10 04:33:00;;;;;;;12.07;6.37;;;6.50;99.90;;;;;;5106520;28;20294;-68
2021/10/10 04:35:28;;;;;;;12.83;6.80;;;6.50;99.90;;;;;;5107611;28;20207;-67
2021/10/10 04:37:55;;;;;;;10.97;5.77;;;6.50;99.90;;;;;;5102169;28;20606;-68
2021/10/10 04:40:22;;;;;;;11.67;6.20;;;6.40;99.90;;;;;;5108313;28;20274;-68
2021/10/10 04:42:49;;;;;;;10.33;6.23;;;6.40;99.90;;;;;;5106489;28;20237;-69
2021/10/10 04:45:16;;;;;;;12.07;6.40;;;6.40;99.90;;;;;;5108504;28;20565;-69
2021/10/10 04:47:44;;;;;;;12.07;6.33;;;6.40;99.90;;;;;;5108306;28;20648;-68
2021/10/10 04:50:11;;;;;;;13.13;6.73;;;6.40;99.90;;;;;;5107169;28;20196;-68
2021/10/10 04:52:38;;;;;;;12.13;6.37;;;6.30;99.90;;;;;;5108689;28;20195;-69
2021/10/10 04:55:06;;;;;;;10.57;5.77;;;6.30;99.90;;;;;;5108592;28;20294;-69
2021/10/10 04:57:33;;;;;;;9.97;5.40;;;6.30;99.90;;;;;;5104768;28;20220;-68
2021/10/10 05:00:00;;;;;;;9.47;5.30;;;6.30;99.90;;;;;;5112614;27;20200;-68
2021/10/10 05:02:27;;;;;;;10.10;5.67;;;6.30;99.90;;;;;;5112596;27;20693;-69
2021/10/10 05:04:55;;;;;;;10.33;5.53;;;6.30;99.90;;;;;;5112195;28;20235;-69
2021/10/10 05:07:22;;;;;;;8.77;5.70;;;6.30;99.90;;;;;;5101177;28;20204;-68
2021/10/10 05:09:49;;;;;;;10.60;5.83;;;6.30;99.90;;;;;;5111992;28;20262;-69
2021/10/10 05:12:16;;;;;;;9.00;5.53;;;6.30;99.90;;;;;;5109476;28;20214;-68
2021/10/10 05:14:44;;;;;;;10.50;5.63;;;6.30;99.90;;;;;;5110233;28;20191;-68
2021/10/10 05:17:11;;;;;;;11.13;5.87;;;6.30;99.90;;;;;;5109885;28;20750;-68
2021/10/10 05:19:38;;;;;;;13.33;6.20;;;6.30;99.90;;;;;;5116449;27;20226;-69
2021/10/10 05:22:07;;;;;;;11.37;6.30;;;6.30;99.90;;;;;;5110402;28;20188;-67
2021/10/10 05:24:34;;;;;;;11.33;6.07;;;6.30;99.90;;;;;;5111683;28;20203;-68
2021/10/10 05:27:01;;;;;;;10.43;5.60;;;6.30;99.90;;;;;;5111146;28;20973;-68
2021/10/10 05:29:28;;;;;;;10.57;5.90;;;6.30;99.90;;;;;;5109403;28;20179;-69
2021/10/10 05:31:55;;;;;;;11.70;6.17;;;6.30;99.90;;;;;;5111471;28;20623;-69
2021/10/10 05:34:22;;;;;;;13.30;6.63;;;6.40;99.90;;;;;;5111186;28;20188;-69
2021/10/10 05:36:49;;;;;;;12.07;6.20;;;6.40;99.90;;;;;;5109182;28;20187;-68
2021/10/10 05:39:18;;;;;;;12.43;6.67;;;6.40;99.90;;;;;;5118401;27;20247;-68
2021/10/10 05:41:45;;;;;;;13.23;6.30;;;6.40;99.90;;;;;;5118440;27;20739;-67
2021/10/10 05:44:12;;;;;;;11.43;5.77;;;6.50;99.90;;;;;;5109339;28;20194;-68
2021/10/10 05:46:39;;;;;;;9.53;5.40;;;6.50;99.90;;;;;;5111258;28;20274;-68
2021/10/10 05:49:06;;;;;;;10.60;5.80;;;6.50;99.90;;;;;;5108847;28;20559;-68
2021/10/10 05:51:33;;;;;;;12.00;5.90;;;6.50;99.90;;;;;;5109277;28;20206;-69
2021/10/10 05:54:00;;;;;;;8.73;5.40;;;6.60;99.90;;;;;;5111074;28;20237;-69
2021/10/10 05:56:31;;;;;;;7.93;5.00;;;6.60;99.90;;;;;;5109922;28;20196;-68
2021/10/10 05:59:03;;;;;;;12.00;6.10;;;6.60;99.90;;;;;;5107418;28;20226;-68
2021/10/10 06:01:30;;;;;;;11.27;5.37;;;6.70;99.90;;;;;;5109995;28;20694;-69
2021/10/10 06:03:57;;;;;;;12.23;6.40;;;6.70;99.90;;;;;;5108680;28;20235;-69
2021/10/10 06:06:24;;;;;;;13.50;6.73;;;6.70;99.90;;;;;;5114063;27;20276;-69
2021/10/10 06:08:51;;;;;;;13.23;7.23;;;6.70;99.90;;;;;;5112500;27;20230;-69
2021/10/10 06:11:18;;;;;;;12.40;6.70;;;6.80;99.90;;;;;;5112713;27;20219;-69
2021/10/10 06:13:47;;;;;;;14.30;7.73;;;6.80;99.90;;;;;;5106269;28;20227;-69
2021/10/10 06:16:14;;;;;;;13.17;7.20;;;6.90;99.90;;;;;;5109589;28;20211;-69
2021/10/10 06:18:42;;;;;;;13.23;7.53;;;6.90;99.90;;;;;;5108443;28;20306;-69
2021/10/10 06:21:09;;;;;;;12.57;6.87;;;6.90;99.90;;;;;;5108753;28;20210;-68
2021/10/10 06:23:36;;;;;;;10.43;6.40;;;7.00;99.90;;;;;;5107461;28;20694;-68
2021/10/10 06:26:03;;;;;;;11.27;6.50;;;7.00;99.90;;;;;;5109612;28;20258;-68
2021/10/10 06:28:30;;;;;;;11.10;6.33;;;7.10;99.90;;;;;;5107942;28;20551;-69
2021/10/10 06:30:58;;;;;;;11.13;6.57;;;7.10;99.90;;;;;;5110384;28;20196;-68
2021/10/10 06:33:25;;;;;;;10.97;6.03;;;7.20;99.90;;;;;;5109024;28;20601;-69
2021/10/10 06:35:52;;;;;;;10.57;6.23;;;7.30;99.90;;;;;;5110683;28;21150;-69
2021/10/10 06:38:19;;;;;;;10.23;6.27;;;7.40;99.90;;;;;;5108287;28;20215;-68
2021/10/10 06:40:47;;;;;;;11.00;6.47;;;7.50;99.90;;;;;;5110775;27;20207;-68
2021/10/10 06:43:14;;;;;;;12.87;6.83;;;7.60;99.90;;;;;;5115259;27;20208;-69
2021/10/10 06:45:41;;;;;;;12.77;6.87;;;7.70;99.90;;;;;;5110010;28;20261;-68
2021/10/10 06:48:09;;;;;;;11.50;6.50;;;7.90;99.90;;;;;;5108419;28;20195;-67
2021/10/10 06:50:36;;;;;;;10.47;6.57;;;8.30;99.90;;;;;;5108365;28;20208;-68
2021/10/10 06:53:03;;;;;;;11.73;6.97;;;9.30;99.90;;;;;;5107854;28;20421;-68
2021/10/10 06:55:30;;;;;;;11.47;6.80;;;10.50;98.90;;;;;;5108558;28;20202;-68
2021/10/10 06:57:57;;;;;;;14.83;7.57;;;11.70;97.60;;;;;;5107832;28;20250;-68
2021/10/10 07:00:24;;;;;;;10.87;6.77;;;12.80;95.90;;;;;;5108648;28;20638;-68
2021/10/10 07:02:52;;;;;;;15.17;7.53;;;13.80;94.40;;;;;;5112125;27;20257;-68
2021/10/10 07:05:20;;;;;;;11.50;7.07;;;14.80;92.80;;;;;;5108358;27;20205;-68
2021/10/10 07:07:47;;;;;;;12.13;7.00;;;15.80;91.30;;;;;;5109545;28;20202;-68
2021/10/10 07:10:14;;;;;;;11.77;7.10;;;16.60;89.30;;;;;;5109950;28;20196;-69
2021/10/10 07:12:41;;;;;;;12.53;7.37;;;17.40;86.00;;;;;;5105235;28;20310;-68
2021/10/10 07:15:11;;;;;;;14.73;8.23;;;18.10;82.80;;;;;;5107781;28;20201;-69
2021/10/10 07:17:38;;;;;;;14.67;9.07;;;18.80;79.90;;;;;;5107442;28;20194;-69
2021/10/10 07:20:10;;;;;;;19.83;10.87;;;19.40;77.60;;;;;;5107329;28;20722;-68
2021/10/10 07:22:46;;;;;;;18.10;10.13;;;20.00;74.00;;;;;;5104966;27;20196;-68
2021/10/10 07:25:13;;;;;;;20.43;11.83;;;20.50;72.00;;;;;;5109175;28;20199;-67
2021/10/10 07:27:43;;;;;;;22.13;13.03;;;21.00;69.30;;;;;;5110710;27;20210;-68
2021/10/10 07:30:13;;;;;;;21.23;13.00;;;21.40;66.90;;;;;;5113956;27;20236;-69
2021/10/10 07:32:40;;;;;;;21.63;13.20;;;21.80;65.30;;;;;;5106439;28;20205;-69
2021/10/10 07:35:10;;;;;;;28.57;15.43;;;22.20;63.60;;;;;;5108776;28;20528;-69
2021/10/10 07:37:38;;;;;;;24.85;15.20;;;22.40;61.60;;;;;;5108304;28;20199;-69
2021/10/10 07:40:07;;;;;;;30.83;16.07;;;22.60;60.40;;;;;;5108035;28;20767;-69
2021/10/10 07:42:33;;;;;;;29.17;14.88;;;22.60;59.20;;;;;;5117803;27;20932;-68
2021/10/10 07:45:10;;;;;;;33.00;16.70;;;22.50;58.80;;;;;;5103802;27;20200;-68
2021/10/10 07:50:28;;;;;;;23.60;12.23;;;22.80;57.60;;;;;;5049235;28;20213;-67
2021/10/10 07:52:56;;;;;;;20.40;11.00;;;23.30;56.30;;;;;;5040696;28;20201;-68
2021/10/10 07:55:23;;;;;;;19.38;9.98;;;23.70;55.10;;;;;;5059792;28;20667;-67
2021/10/10 07:57:50;;;;;;;18.20;9.77;;;24.10;54.20;;;;;;5043542;28;20287;-68
2021/10/10 08:00:17;;;;;;;17.08;9.27;;;24.50;53.50;;;;;;5061021;28;20730;-68
2021/10/10 08:02:52;;;;;;;15.10;9.05;;;25.00;52.00;;;;;;5059121;28;20196;-68
2021/10/10 08:05:20;;;;;;;18.88;10.63;;;25.50;50.70;;;;;;5060537;28;20232;-68
2021/10/10 08:07:47;;;;;;;18.30;9.50;;;26.00;48.90;;;;;;5053985;28;20714;-69
2021/10/10 08:10:17;;;;;;;18.20;9.45;;;26.50;47.60;;;;;;5059283;28;20629;-69
2021/10/10 08:12:44;;;;;;;12.18;8.18;;;26.90;46.60;;;;;;5065383;28;20224;-69
2021/10/10 08:15:11;;;;;;;14.05;8.15;;;27.40;45.80;;;;;;5059618;28;20719;-68
2021/10/10 08:17:39;;;;;;;13.20;8.05;;;27.80;44.60;;;;;;5043538;28;20197;-69
2021/10/10 08:20:08;;;;;;;11.35;8.07;;;28.10;43.90;;;;;;5045894;28;20664;-69
2021/10/10 08:22:37;;;;;;;12.90;9.15;;;28.50;43.10;;;;;;5065640;28;20205;-68
2021/10/10 08:25:07;;;;;;;14.05;8.90;;;29.00;41.80;;;;;;5039702;28;20280;-69
2021/10/10 08:27:36;;;;;;;17.20;9.35;;;29.40;40.90;;;;;;5079591;28;20204;-68
2021/10/10 08:30:04;;;;;;;10.20;7.85;;;29.90;40.00;;;;;;5103627;28;20189;-68
2021/10/10 08:32:31;;;;;;;10.35;7.68;;;30.20;39.20;;;;;;5103488;28;20196;-69
2021/10/10 08:34:58;;;;;;;10.82;6.97;;;30.50;38.50;;;;;;5107603;28;20219;-69
2021/10/10 08:37:25;;;;;;;10.25;7.80;;;30.70;37.90;;;;;;5108234;27;20852;-68
2021/10/10 08:39:52;;;;;;;9.98;6.97;;;31.00;37.10;;;;;;5109366;27;20238;-69
2021/10/10 08:42:27;;;;;;;10.52;8.10;;;31.30;36.70;;;;;;5105763;27;20199;-69
2021/10/10 08:45:02;;;;;;;12.10;7.90;;;31.50;36.30;;;;;;5109201;28;20203;-69
2021/10/10 08:47:31;;;;;;;9.95;7.68;;;31.80;35.50;;;;;;5107094;27;20196;-69
2021/10/10 08:49:59;;;;;;;10.10;8.20;;;32.20;35.00;;;;;;5104627;27;20210;-69
2021/10/10 08:52:26;;;;;;;10.15;7.72;;;32.60;34.10;;;;;;5106010;27;20274;-69
2021/10/10 08:54:54;;;;;;;10.57;8.20;;;33.10;33.60;;;;;;5103763;27;20620;-69
2021/10/10 08:57:22;;;;;;;8.52;7.28;;;33.40;32.70;;;;;;5105973;27;20262;-69
2021/10/10 08:59:53;;;;;;;8.98;7.47;;;33.70;33.10;;;;;;5102430;27;20448;-69
2021/10/10 09:02:25;;;;;;;7.53;6.82;;;33.90;31.80;;;;;;5110186;27;20260;-68
2021/10/10 09:04:52;;;;;;;8.95;7.07;;;34.40;31.40;;;;;;5113538;27;20227;-68
2021/10/10 09:07:19;;;;;;;9.52;8.18;;;34.60;30.80;;;;;;5110631;27;20632;-67
2021/10/10 09:09:46;;;;;;;11.02;9.00;;;34.60;31.10;;;;;;5110674;27;20200;-68
2021/10/10 09:12:14;;;;;;;11.25;8.35;;;34.40;29.60;;;;;;5108994;27;20899;-68
2021/10/10 09:14:46;;;;;;;8.88;7.75;;;34.00;29.70;;;;;;5106713;28;20563;-68
2021/10/10 09:17:16;;;;;;;8.80;7.90;;;33.50;30.00;;;;;;5107660;27;20192;-67
2021/10/10 09:19:51;;;;;;;10.18;7.85;;;33.00;30.50;;;;;;5109270;28;20219;-68
2021/10/10 09:22:20;;;;;;;10.25;8.45;;;32.60;30.50;;;;;;5111269;27;20294;-68
2021/10/10 09:24:47;;;;;;;8.23;7.28;;;32.40;30.50;;;;;;5112956;27;20200;-69
2021/10/10 09:27:15;;;;;;;8.40;7.00;;;32.60;30.50;;;;;;5106395;27;20285;-68
2021/10/10 09:29:45;;;;;;;7.28;6.43;;;32.80;30.20;;;;;;5113008;27;20290;-68
2021/10/10 09:32:14;;;;;;;8.90;7.20;;;33.20;30.00;;;;;;5114391;27;20212;-67
2021/10/10 09:34:42;;;;;;;9.55;6.72;;;33.50;29.80;;;;;;5103227;27;20272;-69
2021/10/10 09:37:18;;;;;;;10.57;7.47;;;33.80;29.50;;;;;;5110504;27;20280;-69
2021/10/10 09:39:49;;;;;;;9.73;8.68;;;34.00;29.30;;;;;;5105398;27;20481;-69
2021/10/10 09:42:32;;;;;;;9.75;8.65;;;34.20;29.00;;;;;;5106796;27;20274;-69
2021/10/10 09:45:17;;;;;;;8.80;7.72;;;34.30;28.90;;;;;;5108038;28;20597;-69
2021/10/10 09:47:50;;;;;;;9.35;8.07;;;34.40;28.70;;;;;;5105343;27;20223;-68
2021/10/10 09:50:17;;;;;;;9.60;8.02;;;34.40;28.60;;;;;;5105353;27;20206;-72
2021/10/10 09:52:46;;;;;;;9.68;7.32;;;34.50;28.40;;;;;;5097514;28;20234;-70
2021/10/10 09:55:14;;;;;;;8.43;7.57;;;34.60;28.30;;;;;;5102420;27;20200;-73
2021/10/10 09:57:47;;;;;;;8.65;7.75;;;34.80;28.30;;;;;;5101321;27;20207;-74
2021/10/10 10:00:21;;;;;;;8.55;7.63;;;35.10;28.40;;;;;;5104560;27;20227;-72
2021/10/10 10:02:48;;;;;;;7.50;6.80;;;35.20;27.70;;;;;;5102783;28;20257;-71
2021/10/10 10:05:24;;;;;;;10.63;7.53;;;35.30;27.60;;;;;;5103366;28;20196;-73
2021/10/10 10:07:54;;;;;;;11.65;9.20;;;35.30;27.60;;;;;;5103750;27;20303;-73
2021/10/10 10:10:23;;;;;;;10.70;7.93;;;35.50;27.40;;;;;;5101534;27;20295;-73
2021/10/10 10:12:52;;;;;;;9.63;8.25;;;35.60;27.40;;;;;;5101381;27;20196;-71
2021/10/10 10:15:20;;;;;;;10.07;8.38;;;35.60;27.20;;;;;;5105489;28;20184;-72
2021/10/10 10:17:48;;;;;;;9.10;8.20;;;35.60;27.20;;;;;;5107117;27;20215;-71
2021/10/10 10:20:16;;;;;;;8.65;7.60;;;35.80;27.10;;;;;;5110682;27;20207;-72
2021/10/10 10:22:45;;;;;;;7.53;6.82;;;35.80;26.80;;;;;;5109972;27;20204;-72
2021/10/10 10:25:13;;;;;;;7.57;6.75;;;35.80;26.90;;;;;;5107257;27;20281;-72
2021/10/10 10:27:40;;;;;;;8.02;7.22;;;36.00;26.80;;;;;;5115516;27;21004;-72
2021/10/10 10:30:08;;;;;;;9.00;7.72;;;36.00;26.40;;;;;;5120076;27;20587;-72
2021/10/10 10:32:36;;;;;;;8.13;7.40;;;36.00;26.10;;;;;;5116819;27;20200;-72
2021/10/10 10:35:08;;;;;;;7.38;6.68;;;35.90;26.10;;;;;;5110537;27;20191;-72
2021/10/10 10:37:57;;;;;;;8.68;7.35;;;35.90;26.10;;;;;;5106109;28;20883;-72
2021/10/10 10:40:39;;;;;;;7.97;7.13;;;35.80;26.50;;;;;;5047515;28;20650;-73
2021/10/10 10:43:14;;;;;;;7.85;7.13;;;35.60;26.00;;;;;;5049923;28;20237;-73
2021/10/10 10:45:45;;;;;;;7.47;6.70;;;35.50;25.80;;;;;;5028966;28;20206;-72
2021/10/10 10:48:37;;;;;;;7.78;6.97;;;35.50;25.60;;;;;;5043824;28;20242;-71
2021/10/10 10:51:17;;;;;;;6.90;6.28;;;35.50;25.60;;;;;;5036128;28;20756;-72
2021/10/10 10:53:44;;;;;;;6.55;5.95;;;35.60;25.70;;;;;;5029007;28;20210;-72
2021/10/10 10:56:26;;;;;;;6.30;5.72;;;35.70;25.70;;;;;;5046381;28;20220;-72
2021/10/10 10:58:58;;;;;;;6.50;5.93;;;35.90;26.20;;;;;;5043297;28;20227;-72
2021/10/10 11:01:26;;;;;;;6.72;6.13;;;36.00;25.50;;;;;;5040375;28;20309;-72
2021/10/10 11:04:13;;;;;;;7.22;6.53;;;35.80;25.30;;;;;;5031131;28;20236;-72
2021/10/10 11:06:54;;;;;;;7.38;6.68;;;35.80;25.20;;;;;;5034660;28;20206;-72
2021/10/10 11:09:25;;;;;;;6.80;6.20;;;35.70;25.20;;;;;;5038497;28;20198;-73
2021/10/10 11:11:59;;;;;;;9.23;8.32;;;35.60;25.10;;;;;;5046055;28;20975;-73
2021/10/10 11:14:29;;;;;;;9.82;7.57;;;35.50;25.10;;;;;;5027273;28;20202;-73
2021/10/10 11:17:05;;;;;;;9.13;7.35;;;34.80;25.10;;;;;;5072596;27;20681;-73
2021/10/10 11:19:32;;;;;;;9.60;7.90;;;34.00;25.30;;;;;;5114393;27;20222;-72
2021/10/10 11:21:59;;;;;;;7.47;6.78;;;33.40;25.60;;;;;;5109488;28;20203;-73
2021/10/10 11:24:26;;;;;;;9.88;7.65;;;33.10;25.90;;;;;;5107711;28;20204;-72
2021/10/10 11:26:56;;;;;;;7.68;6.95;;;33.00;25.70;;;;;;5107448;28;20206;-72
2021/10/10 11:29:24;;;;;;;8.57;7.15;;;33.00;25.80;;;;;;5107581;27;20208;-72
2021/10/10 11:31:53;;;;;;;7.97;7.18;;;33.20;25.70;;;;;;5108337;28;20299;-71
2021/10/10 11:34:23;;;;;;;9.07;7.00;;;33.10;25.60;;;;;;5107523;28;20227;-72
2021/10/10 11:36:52;;;;;;;11.35;7.57;;;32.60;25.80;;;;;;5087699;28;20307;-71
2021/10/10 11:39:21;;;;;;;7.30;6.63;;;31.60;26.20;;;;;;5107996;28;20204;-71
2021/10/10 11:41:50;;;;;;;7.53;6.63;;;30.50;26.90;;;;;;5107535;28;20224;-71
2021/10/10 11:44:20;;;;;;;7.40;6.65;;;29.60;27.50;;;;;;5105818;28;20200;-71
2021/10/10 11:46:52;;;;;;;11.15;7.15;;;28.70;28.00;;;;;;5106492;28;20719;-71
2021/10/10 11:49:34;;;;;;;6.97;6.18;;;27.80;28.60;;;;;;5107693;28;20203;-72
2021/10/10 11:52:12;;;;;;;9.63;6.20;;;27.10;29.10;;;;;;5107301;28;20675;-71
2021/10/10 11:54:40;;;;;;;5.75;5.05;;;26.50;29.60;;;;;;5108970;28;20279;-71
2021/10/10 11:57:08;;;;;;;6.40;5.05;;;25.90;29.90;;;;;;5107765;28;20214;-71
2021/10/10 11:59:35;;;;;;;5.80;5.25;;;25.50;30.10;;;;;;5102967;28;20680;-72
2021/10/10 12:02:04;;;;;;;6.80;5.38;;;25.00;30.50;;;;;;5107606;28;20212;-72
2021/10/10 12:04:31;;;;;;;6.30;5.60;;;24.60;30.90;;;;;;5107809;28;20246;-71
2021/10/10 12:06:58;;;;;;;7.30;5.55;;;24.10;31.40;;;;;;5102374;28;20195;-71
2021/10/10 12:09:25;;;;;;;8.05;5.88;;;23.70;31.90;;;;;;5109289;27;20203;-71
2021/10/10 12:12:09;;;;;;;6.03;4.82;;;23.30;32.50;;;;;;5117770;27;20266;-71
2021/10/10 12:14:44;;;;;;;6.20;5.60;;;22.90;32.60;;;;;;5114460;27;20667;-70
2021/10/10 12:17:29;;;;;;;7.95;6.45;;;22.60;33.20;;;;;;5109052;27;20214;-71
2021/10/10 12:19:57;;;;;;;8.02;5.97;;;22.20;34.50;;;;;;5109662;28;20208;-71
2021/10/10 12:22:24;;;;;;;7.97;5.75;;;21.80;34.60;;;;;;5109209;27;20377;-71
2021/10/10 12:24:52;;;;;;;5.90;5.30;;;21.50;34.90;;;;;;5110191;27;20214;-70
2021/10/10 12:27:30;;;;;;;5.55;5.00;;;21.20;35.70;;;;;;5106544;27;20207;-71
2021/10/10 12:29:58;;;;;;;8.38;5.32;;;21.10;35.40;;;;;;5110542;27;20200;-70
2021/10/10 12:32:28;;;;;;;5.88;4.70;;;20.90;35.70;;;;;;5108103;27;20314;-70
2021/10/10 12:35:15;;;;;;;5.57;4.93;;;20.70;35.70;;;;;;5110386;28;20207;-71
2021/10/10 12:37:50;;;;;;;5.40;4.90;;;20.50;35.90;;;;;;5109700;27;20199;-71
2021/10/10 12:40:29;;;;;;;9.63;6.82;;;20.40;36.00;;;;;;5109760;28;20720;-71
2021/10/10 12:42:57;;;;;;;6.93;5.53;;;20.20;36.40;;;;;;5107424;28;20198;-71
2021/10/10 12:45:31;;;;;;;8.65;6.53;;;19.90;36.90;;;;;;5109858;27;20249;-70
2021/10/10 12:48:02;;;;;;;7.50;5.38;;;19.70;37.30;;;;;;5104022;27;20200;-71
2021/10/10 12:50:29;;;;;;;6.47;4.60;;;19.60;37.30;;;;;;5107663;27;20188;-71
2021/10/10 12:52:56;;;;;;;6.45;4.63;;;19.40;37.50;;;;;;5108996;28;20196;-70
2021/10/10 12:55:26;;;;;;;6.55;5.70;;;19.30;38.00;;;;;;5106467;28;20204;-71
2021/10/10 12:57:54;;;;;;;6.55;4.93;;;19.10;38.10;;;;;;5106903;27;20223;-71